createdAt,value
2018-10-17T00:00:47.496Z,91.54
2018-10-17T00:03:15.811Z,91.67
2018-10-17T00:05:44.477Z,90.95
2018-10-17T00:08:12.794Z,91.86
2018-10-17T00:10:41.206Z,91.87
2018-10-17T00:13:09.584Z,91.06
2018-10-17T00:15:37.916Z,91.13
2018-10-17T00:18:06.470Z,91.26
2018-10-17T00:20:34.831Z,91.14
2018-10-17T00:23:03.216Z,90.86
2018-10-17T00:25:31.561Z,90.99
2018-10-17T00:27:59.878Z,90.60
2018-10-17T00:30:28.184Z,91.43
2018-10-17T00:32:56.570Z,91.90
2018-10-17T00:35:24.909Z,92.12
2018-10-17T00:37:53.246Z,91.87
2018-10-17T00:40:23.996Z,91.17
2018-10-17T00:42:53.159Z,91.45
2018-10-17T00:45:21.626Z,91.34
2018-10-17T00:47:49.974Z,90.88
2018-10-17T00:50:18.341Z,91.63
2018-10-17T00:52:46.650Z,91.60
2018-10-17T00:55:15.340Z,93.13
2018-10-17T00:57:43.587Z,94.52
2018-10-17T01:00:11.946Z,93.34
2018-10-17T01:02:40.294Z,92.61
2018-10-17T01:05:08.747Z,92.45
2018-10-17T01:07:37.080Z,92.04
2018-10-17T01:10:05.615Z,91.42
2018-10-17T01:12:33.926Z,90.79
2018-10-17T01:15:02.289Z,91.53
2018-10-17T01:17:30.654Z,92.12
2018-10-17T01:19:58.983Z,92.44
2018-10-17T01:22:27.466Z,92.12
2018-10-17T01:24:55.865Z,91.41
2018-10-17T01:27:24.214Z,91.62
2018-10-17T01:29:52.567Z,91.74
2018-10-17T01:32:20.916Z,92.39
2018-10-17T01:34:49.287Z,92.95
2018-10-17T01:37:17.670Z,92.48
2018-10-17T01:39:46.010Z,91.97
2018-10-17T01:42:14.343Z,91.04
2018-10-17T01:44:42.679Z,90.99
2018-10-17T01:47:11.101Z,91.56
2018-10-17T01:49:39.455Z,92.73
2018-10-17T01:52:07.785Z,93.48
2018-10-17T01:54:36.159Z,93.98
2018-10-17T01:57:04.575Z,94.09
2018-10-17T01:59:32.882Z,93.73
2018-10-17T02:02:01.236Z,94.11
2018-10-17T02:04:29.534Z,93.79
2018-10-17T02:06:57.929Z,92.78
2018-10-17T02:09:26.244Z,91.85
2018-10-17T02:11:54.588Z,91.86
2018-10-17T02:14:22.939Z,92.32
2018-10-17T02:16:51.368Z,91.91
2018-10-17T02:19:19.709Z,91.78
2018-10-17T02:21:48.041Z,91.85
2018-10-17T02:24:16.388Z,91.71
2018-10-17T02:26:44.727Z,91.33
2018-10-17T02:29:13.137Z,91.49
2018-10-17T02:31:41.495Z,91.23
2018-10-17T02:34:09.819Z,91.28
2018-10-17T02:36:38.191Z,90.49
2018-10-17T02:39:08.242Z,90.73
2018-10-17T02:41:47.719Z,91.51
2018-10-17T02:44:26.359Z,93.29
2018-10-17T02:46:57.652Z,94.22
2018-10-17T02:49:26.127Z,92.86
2018-10-17T02:51:54.466Z,92.01
2018-10-17T02:54:22.832Z,92.07
2018-10-17T02:56:51.174Z,92.19
2018-10-17T02:59:19.551Z,92.23
2018-10-17T03:01:47.899Z,91.49
2018-10-17T03:04:16.248Z,91.75
2018-10-17T03:06:44.616Z,92.09
2018-10-17T03:09:12.947Z,93.17
2018-10-17T03:11:41.276Z,94.19
2018-10-17T03:14:09.639Z,93.13
2018-10-17T03:16:38.048Z,92.38
2018-10-17T03:19:06.459Z,92.56
2018-10-17T03:21:34.838Z,93.35
2018-10-17T03:24:03.186Z,93.30
2018-10-17T03:26:31.535Z,93.25
2018-10-17T03:28:59.957Z,92.61
2018-10-17T03:31:28.383Z,92.43
2018-10-17T03:33:56.672Z,92.25
2018-10-17T03:36:25.001Z,92.18
2018-10-17T03:38:53.371Z,92.23
2018-10-17T03:41:21.710Z,92.55
2018-10-17T03:43:50.023Z,92.50
2018-10-17T03:46:18.362Z,92.54
2018-10-17T03:48:46.682Z,92.66
2018-10-17T03:51:15.155Z,94.21
2018-10-17T03:53:43.500Z,94.86
2018-10-17T03:56:11.840Z,93.68
2018-10-17T03:58:40.217Z,92.60
2018-10-17T04:01:08.619Z,91.98
2018-10-17T04:03:36.915Z,92.30
2018-10-17T04:06:05.582Z,92.07
2018-10-17T04:08:33.947Z,92.04
2018-10-17T04:11:02.335Z,91.86
2018-10-17T04:13:30.688Z,91.98
2018-10-17T04:15:59.056Z,91.96
2018-10-17T04:18:27.411Z,92.54
2018-10-17T04:20:55.814Z,92.22
2018-10-17T04:23:24.144Z,92.12
2018-10-17T04:25:52.449Z,91.47
2018-10-17T04:28:20.814Z,91.09
2018-10-17T04:30:49.167Z,91.06
2018-10-17T04:33:17.519Z,91.85
2018-10-17T04:35:45.945Z,91.70
2018-10-17T04:38:14.346Z,91.43
2018-10-17T04:40:42.779Z,92.02
2018-10-17T04:43:11.430Z,91.36
2018-10-17T04:45:40.017Z,91.13
2018-10-17T04:48:08.414Z,91.20
2018-10-17T04:50:36.815Z,91.35
2018-10-17T04:53:05.346Z,92.20
2018-10-17T04:55:33.690Z,91.64
2018-10-17T04:58:02.126Z,91.35
2018-10-17T05:00:30.488Z,91.86
2018-10-17T05:02:58.826Z,92.74
2018-10-17T05:05:27.182Z,92.64
2018-10-17T05:07:55.684Z,93.08
2018-10-17T05:10:24.065Z,92.67
2018-10-17T05:12:52.409Z,91.70
2018-10-17T05:15:20.865Z,91.87
2018-10-17T05:17:49.187Z,92.19
2018-10-17T05:20:17.756Z,92.44
2018-10-17T05:22:46.138Z,92.34
2018-10-17T05:25:14.511Z,91.19
2018-10-17T05:27:42.832Z,91.18
2018-10-17T05:30:11.152Z,91.89
2018-10-17T05:32:39.537Z,91.70
2018-10-17T05:35:08.252Z,91.17
2018-10-17T05:37:36.720Z,91.79
2018-10-17T05:40:06.086Z,92.37
2018-10-17T05:42:34.478Z,93.50
2018-10-17T05:45:03.475Z,93.90
2018-10-17T05:47:32.307Z,93.08
2018-10-17T05:50:00.816Z,92.23
2018-10-17T05:52:29.179Z,91.83
2018-10-17T05:54:57.606Z,92.12
2018-10-17T05:57:26.003Z,93.45
2018-10-17T05:59:54.426Z,93.56
2018-10-17T06:02:27.297Z,93.11
2018-10-17T06:04:56.078Z,92.85
2018-10-17T06:07:24.508Z,92.36
2018-10-17T06:09:52.983Z,91.76
2018-10-17T06:12:21.330Z,92.03
2018-10-17T06:14:49.682Z,91.66
2018-10-17T06:17:18.179Z,91.82
2018-10-17T06:19:46.578Z,93.03
2018-10-17T06:22:14.925Z,93.09
2018-10-17T06:24:43.324Z,93.05
2018-10-17T06:27:11.963Z,92.89
2018-10-17T06:29:40.484Z,92.49
2018-10-17T06:32:08.831Z,93.06
2018-10-17T06:34:37.295Z,92.96
2018-10-17T06:37:06.167Z,93.02
2018-10-17T06:39:34.490Z,91.85
2018-10-17T06:42:02.931Z,91.59
2018-10-17T06:44:31.337Z,91.14
2018-10-17T06:46:59.782Z,91.01
2018-10-17T06:49:28.071Z,91.01
2018-10-17T06:51:56.443Z,90.67
2018-10-17T06:54:24.842Z,91.54
2018-10-17T06:56:53.202Z,90.63
2018-10-17T06:59:21.608Z,91.68
2018-10-17T07:01:50.001Z,92.18
2018-10-17T07:04:18.373Z,93.89
2018-10-17T07:06:46.844Z,95.08
2018-10-17T07:09:15.228Z,94.24
2018-10-17T07:11:43.837Z,92.54
2018-10-17T07:14:12.204Z,92.39
2018-10-17T07:16:40.564Z,93.50
2018-10-17T07:19:09.080Z,94.27
2018-10-17T07:21:37.592Z,92.96
2018-10-17T07:24:05.939Z,90.75
2018-10-17T07:26:34.326Z,90.02
2018-10-17T07:29:09.249Z,92.17
2018-10-17T07:31:37.995Z,93.02
2018-10-17T07:34:06.519Z,93.68
2018-10-17T07:36:34.891Z,93.73
2018-10-17T07:39:03.664Z,93.78
2018-10-17T07:41:32.072Z,93.62
2018-10-17T07:44:01.516Z,92.72
2018-10-17T07:46:30.200Z,92.88
2018-10-17T07:48:58.607Z,93.47
2018-10-17T07:51:26.984Z,93.72
2018-10-17T07:53:55.380Z,93.62
2018-10-17T07:56:23.857Z,93.31
2018-10-17T07:58:52.247Z,92.43
2018-10-17T08:01:20.610Z,92.79
2018-10-17T08:03:48.979Z,93.30
2018-10-17T08:06:17.510Z,93.46
2018-10-17T08:08:45.959Z,92.90
2018-10-17T08:11:14.315Z,93.12
2018-10-17T08:13:42.703Z,92.93
2018-10-17T08:16:11.307Z,92.55
2018-10-17T08:18:39.724Z,93.17
2018-10-17T08:21:08.206Z,92.40
2018-10-17T08:23:36.556Z,92.12
2018-10-17T08:26:04.899Z,91.89
2018-10-17T08:28:33.254Z,92.01
2018-10-17T08:31:01.603Z,92.50
2018-10-17T08:33:29.966Z,92.40
2018-10-17T08:35:58.623Z,92.75
2018-10-17T08:38:26.920Z,92.57
2018-10-17T08:40:55.361Z,92.76
2018-10-17T08:43:23.718Z,92.77
2018-10-17T08:45:52.080Z,92.55
2018-10-17T08:48:20.435Z,92.48
2018-10-17T08:50:48.933Z,91.87
2018-10-17T08:53:29.547Z,91.81
2018-10-17T08:55:57.905Z,91.86
2018-10-17T08:58:26.255Z,91.67
2018-10-17T09:00:54.644Z,92.00
2018-10-17T09:03:23.018Z,92.16
2018-10-17T09:05:51.385Z,92.00
2018-10-17T09:08:19.824Z,92.10
2018-10-17T09:10:48.178Z,93.02
2018-10-17T09:13:16.560Z,92.13
2018-10-17T09:15:44.904Z,92.02
2018-10-17T09:18:13.354Z,92.27
2018-10-17T09:20:41.942Z,91.63
2018-10-17T09:23:10.082Z,91.27
2018-10-17T09:25:38.468Z,90.49
2018-10-17T09:28:06.663Z,90.76
2018-10-17T09:30:35.009Z,87.90
2018-10-17T09:33:03.527Z,87.17
2018-10-17T09:35:31.917Z,87.13
2018-10-17T09:38:00.300Z,85.84
2018-10-17T09:40:28.641Z,84.41
2018-10-17T09:42:57.016Z,84.15
2018-10-17T09:45:25.351Z,83.56
2018-10-17T09:47:53.716Z,81.77
2018-10-17T09:50:22.072Z,80.48
2018-10-17T09:52:50.506Z,80.05
2018-10-17T09:55:18.875Z,80.43
2018-10-17T09:57:47.245Z,78.32
2018-10-17T10:00:20.932Z,77.10
2018-10-17T10:02:50.810Z,76.11
2018-10-17T10:05:19.169Z,76.75
2018-10-17T10:07:47.555Z,76.00
2018-10-17T10:10:15.998Z,75.31
2018-10-17T10:12:44.307Z,74.51
2018-10-17T10:15:12.721Z,74.96
2018-10-17T10:17:41.151Z,75.38
2018-10-17T10:20:09.474Z,74.96
2018-10-17T10:22:37.810Z,73.63
2018-10-17T10:25:06.419Z,73.27
2018-10-17T10:27:34.768Z,72.73
2018-10-17T10:30:03.404Z,72.86
2018-10-17T10:32:31.880Z,71.52
2018-10-17T10:35:00.255Z,71.18
2018-10-17T10:37:28.597Z,71.19
2018-10-17T10:39:57.011Z,71.42
2018-10-17T10:42:25.328Z,69.47
2018-10-17T10:44:53.707Z,69.72
2018-10-17T10:47:22.050Z,70.85
2018-10-17T10:49:50.412Z,73.15
2018-10-17T10:52:18.738Z,73.77
2018-10-17T10:54:47.201Z,73.63
2018-10-17T10:57:15.676Z,72.64
2018-10-17T10:59:44.368Z,73.77
2018-10-17T11:02:12.682Z,73.97
2018-10-17T11:04:41.081Z,73.69
2018-10-17T11:07:09.443Z,71.98
2018-10-17T11:09:37.804Z,73.05
2018-10-17T11:12:06.571Z,73.06
2018-10-17T11:14:35.000Z,72.63
2018-10-17T11:17:03.404Z,72.82
2018-10-17T11:19:31.764Z,71.66
2018-10-17T11:22:00.155Z,72.25
2018-10-17T11:24:28.494Z,72.41
2018-10-17T11:26:56.855Z,70.94
2018-10-17T11:29:25.272Z,70.98
2018-10-17T11:31:53.690Z,71.49
2018-10-17T11:34:21.967Z,70.01
2018-10-17T11:36:50.408Z,70.01
2018-10-17T11:39:18.808Z,69.68
2018-10-17T11:41:47.147Z,67.98
2018-10-17T11:44:15.528Z,68.69
2018-10-17T11:46:43.858Z,69.10
2018-10-17T11:49:12.219Z,67.59
2018-10-17T11:51:40.610Z,67.50
2018-10-17T11:54:08.971Z,67.03
2018-10-17T11:56:37.314Z,65.94
2018-10-17T11:59:05.901Z,65.93
2018-10-17T12:01:34.263Z,65.55
2018-10-17T12:04:02.890Z,65.45
2018-10-17T12:06:31.107Z,65.48
2018-10-17T12:08:59.444Z,64.65
2018-10-17T12:11:27.877Z,65.71
2018-10-17T12:13:56.199Z,63.20
2018-10-17T12:16:24.547Z,64.37
2018-10-17T12:18:53.047Z,62.28
2018-10-17T12:21:21.447Z,61.66
2018-10-17T12:23:49.747Z,62.43
2018-10-17T12:26:18.268Z,62.11
2018-10-17T12:57:53.871Z,56.58
2018-10-17T13:00:22.391Z,56.82
2018-10-17T13:02:50.683Z,56.51
2018-10-17T13:05:19.001Z,57.62
2018-10-17T13:07:47.338Z,54.77
2018-10-17T13:10:15.627Z,56.75
2018-10-17T13:12:43.877Z,57.04
2018-10-17T13:15:14.215Z,56.70
2018-10-17T13:17:43.584Z,56.09
2018-10-17T13:20:12.049Z,55.20
2018-10-17T13:22:40.647Z,55.56
2018-10-17T13:25:09.020Z,54.94
2018-10-17T13:27:37.353Z,56.21
2018-10-17T13:30:06.411Z,55.35
2018-10-17T13:32:34.729Z,54.79
2018-10-17T13:35:03.408Z,54.64
2018-10-17T13:37:31.823Z,53.68
2018-10-17T13:40:00.130Z,53.37
2018-10-17T13:42:28.497Z,52.61
2018-10-17T13:44:56.815Z,53.52
2018-10-17T13:47:25.226Z,53.93
2018-10-17T13:49:53.932Z,55.56
2018-10-17T13:52:22.312Z,55.87
2018-10-17T13:54:50.689Z,56.25
2018-10-17T13:57:18.952Z,55.47
2018-10-17T13:59:47.348Z,53.83
2018-10-17T14:02:15.738Z,55.22
2018-10-17T14:04:44.050Z,55.74
2018-10-17T14:07:12.627Z,55.13
2018-10-17T14:09:44.140Z,55.66
2018-10-17T14:12:12.686Z,56.12
2018-10-17T14:14:42.084Z,55.70
2018-10-17T14:17:10.783Z,56.97
2018-10-17T14:19:39.328Z,55.01
2018-10-17T14:22:08.615Z,56.03
2018-10-17T14:24:37.416Z,54.23
2018-10-17T14:27:06.554Z,54.71
2018-10-17T14:29:37.984Z,53.61
2018-10-17T14:32:06.961Z,54.03
2018-10-17T14:34:35.666Z,53.37
2018-10-17T14:37:04.128Z,53.27
2018-10-17T14:39:32.527Z,54.63
2018-10-17T14:42:01.020Z,54.69
2018-10-17T14:44:29.384Z,55.41
2018-10-17T14:46:57.884Z,54.46
2018-10-17T14:49:26.178Z,54.06
2018-10-17T14:51:54.969Z,54.86
2018-10-17T14:54:24.241Z,54.54
2018-10-17T14:57:03.635Z,55.31
2018-10-17T14:59:32.284Z,56.63
2018-10-17T15:02:00.871Z,57.53
2018-10-17T15:04:30.579Z,56.72
2018-10-17T15:06:59.054Z,56.58
2018-10-17T15:09:27.915Z,57.77
2018-10-17T15:11:56.698Z,57.77
2018-10-17T15:14:24.791Z,57.30
2018-10-17T15:16:53.457Z,58.09
2018-10-17T15:19:21.866Z,58.69
2018-10-17T15:21:50.195Z,59.25
2018-10-17T15:24:18.978Z,60.40
2018-10-17T15:26:47.285Z,60.82
2018-10-17T15:29:22.023Z,61.61
2018-10-17T15:31:50.543Z,61.60
2018-10-17T15:34:18.812Z,61.16
2018-10-17T15:36:47.246Z,62.40
2018-10-17T15:39:16.710Z,62.25
2018-10-17T15:41:45.419Z,62.27
2018-10-17T15:44:13.888Z,62.77
2018-10-17T15:46:42.266Z,63.17
2018-10-17T15:49:10.757Z,63.74
2018-10-17T15:51:39.691Z,64.20
2018-10-17T15:54:08.079Z,64.93
2018-10-17T15:56:36.849Z,67.50
2018-10-17T15:59:05.624Z,67.94
2018-10-17T16:01:34.288Z,68.61
2018-10-17T16:04:03.487Z,69.84
2018-10-17T16:06:32.148Z,70.71
2018-10-17T16:09:00.857Z,70.83
2018-10-17T16:11:29.420Z,71.12
2018-10-17T16:13:58.188Z,72.27
2018-10-17T16:16:26.654Z,72.66
2018-10-17T16:18:55.010Z,72.48
2018-10-17T16:21:23.311Z,72.66
2018-10-17T16:23:51.852Z,73.01
2018-10-17T16:26:20.273Z,73.70
2018-10-17T16:28:48.664Z,73.84
2018-10-17T16:31:17.248Z,75.04
2018-10-17T16:33:45.564Z,74.72
2018-10-17T16:36:13.945Z,75.00
2018-10-17T16:38:42.241Z,75.07
2018-10-17T16:41:10.563Z,75.96
2018-10-17T16:43:38.948Z,75.91
2018-10-17T16:46:07.793Z,76.25
2018-10-17T16:48:36.243Z,76.53
2018-10-17T16:51:04.611Z,77.43
2018-10-17T16:53:32.969Z,77.51
2018-10-17T16:56:01.305Z,77.44
2018-10-17T16:58:29.698Z,77.95
2018-10-17T17:00:58.063Z,78.22
2018-10-17T17:03:26.419Z,78.67
2018-10-17T17:05:54.811Z,78.25
2018-10-17T17:08:23.276Z,78.32
2018-10-17T17:10:51.622Z,78.64
2018-10-17T17:13:19.941Z,79.06
2018-10-17T17:15:48.288Z,78.89
2018-10-17T17:18:16.777Z,79.25
2018-10-17T17:20:45.013Z,79.47
2018-10-17T17:23:13.364Z,79.61
2018-10-17T17:25:42.144Z,80.01
2018-10-17T17:28:10.515Z,79.95
2018-10-17T17:30:38.995Z,80.34
2018-10-17T17:33:07.381Z,79.79
2018-10-17T17:35:35.727Z,80.07
2018-10-17T17:38:04.351Z,80.76
2018-10-17T17:40:32.741Z,81.44
2018-10-17T17:43:02.568Z,80.76
2018-10-17T17:48:04.142Z,81.31
2018-10-17T17:50:33.223Z,80.92
2018-10-17T17:53:01.584Z,81.37
2018-10-17T17:55:32.716Z,82.19
2018-10-17T17:58:04.775Z,81.86
2018-10-17T18:00:35.372Z,82.21
2018-10-17T18:03:06.600Z,82.26
2018-10-17T18:05:38.663Z,82.65
2018-10-17T18:08:08.307Z,82.71
2018-10-17T18:10:38.653Z,82.68
2018-10-17T18:13:08.564Z,83.14
2018-10-17T18:15:39.059Z,83.24
2018-10-17T18:18:08.386Z,83.27
2018-10-17T18:20:36.999Z,83.21
2018-10-17T18:23:07.356Z,83.40
2018-10-17T18:25:35.787Z,83.34
2018-10-17T18:28:05.436Z,84.09
2018-10-17T18:30:34.772Z,83.84
2018-10-17T18:33:03.589Z,84.07
2018-10-17T18:35:33.570Z,84.17
2018-10-17T18:38:02.326Z,84.08
2018-10-17T18:40:30.768Z,84.25
2018-10-17T18:43:00.223Z,84.02
2018-10-17T18:45:28.561Z,84.50
2018-10-17T18:47:57.346Z,84.67
2018-10-17T18:50:26.899Z,84.72
2018-10-17T18:52:56.383Z,84.97
2018-10-17T18:55:26.021Z,84.85
2018-10-17T18:57:55.081Z,85.15
2018-10-17T19:00:24.352Z,85.17
2018-10-17T19:02:52.734Z,84.96
2018-10-17T19:05:21.298Z,84.66
2018-10-17T19:07:49.843Z,84.58
2018-10-17T19:10:19.089Z,84.34
2018-10-17T19:12:47.643Z,84.89
2018-10-17T19:15:16.083Z,84.79
2018-10-17T19:17:44.488Z,85.30
2018-10-17T19:20:13.083Z,85.96
2018-10-17T19:22:43.095Z,85.77
2018-10-17T19:25:11.502Z,86.28
2018-10-17T19:27:39.827Z,87.03
2018-10-17T19:30:09.599Z,86.50
2018-10-17T19:32:38.084Z,86.54
2018-10-17T19:35:06.715Z,86.56
2018-10-17T19:37:35.507Z,86.24
2018-10-17T19:40:03.952Z,86.21
2018-10-17T19:42:32.281Z,86.46
2018-10-17T19:45:04.305Z,87.00
2018-10-17T19:47:32.652Z,86.98
2018-10-17T19:50:00.993Z,86.22
2018-10-17T19:52:29.492Z,86.65
2018-10-17T19:54:58.023Z,87.26
2018-10-17T19:57:32.646Z,87.53
2018-10-17T20:04:25.811Z,87.11
2018-10-17T20:06:54.164Z,87.20
2018-10-17T20:09:22.529Z,87.53
2018-10-17T20:11:50.932Z,89.00
2018-10-17T20:14:19.299Z,87.96
2018-10-17T20:16:47.636Z,87.96
2018-10-17T20:19:16.054Z,87.90
2018-10-17T20:21:44.392Z,87.84
2018-10-17T20:24:12.771Z,88.07
2018-10-17T20:26:41.162Z,87.87
2018-10-17T20:29:09.518Z,88.11
2018-10-17T20:31:37.956Z,88.53
2018-10-17T20:34:06.312Z,88.52
2018-10-17T20:36:34.824Z,88.49
2018-10-17T20:39:03.198Z,88.17
2018-10-17T20:41:31.529Z,87.99
2018-10-17T20:43:59.909Z,88.07
2018-10-17T20:46:28.404Z,87.93
2018-10-17T20:48:56.716Z,87.92
2018-10-17T20:51:25.044Z,87.64
2018-10-17T20:53:53.457Z,87.32
2018-10-17T20:56:21.911Z,87.78
2018-10-17T20:58:50.141Z,88.32
2018-10-17T21:01:18.568Z,88.41
2018-10-17T21:03:46.935Z,87.84
2018-10-17T21:06:15.291Z,87.45
2018-10-17T21:08:43.660Z,87.44
2018-10-17T21:11:12.057Z,87.55
2018-10-17T21:13:40.392Z,87.47
2018-10-17T21:16:08.711Z,87.24
2018-10-17T21:18:37.027Z,87.54
2018-10-17T21:21:05.752Z,87.80
2018-10-17T21:23:34.052Z,87.79
2018-10-17T21:26:02.484Z,87.32
2018-10-17T21:28:30.838Z,87.39
2018-10-17T21:30:59.224Z,87.53
2018-10-17T21:33:27.529Z,87.29
2018-10-17T21:35:55.919Z,87.36
2018-10-17T21:38:24.328Z,87.90
2018-10-17T21:40:52.697Z,88.20
2018-10-17T21:43:21.072Z,87.87
2018-10-17T21:45:49.392Z,88.92
2018-10-17T21:48:17.726Z,88.54
2018-10-17T21:50:46.096Z,88.02
2018-10-17T21:53:14.447Z,88.11
2018-10-17T21:55:42.828Z,87.95
2018-10-17T21:58:11.146Z,87.83
2018-10-17T22:00:39.729Z,87.83
2018-10-17T22:03:08.026Z,87.75
2018-10-17T22:05:36.391Z,87.78
2018-10-17T22:08:05.166Z,87.68
2018-10-17T22:10:33.417Z,88.21
2018-10-17T22:13:02.203Z,88.56
2018-10-17T22:15:30.575Z,89.65
2018-10-17T22:17:58.874Z,90.50
2018-10-17T22:20:27.262Z,89.62
2018-10-17T22:22:55.637Z,88.91
2018-10-17T22:25:23.947Z,88.48
2018-10-17T22:27:52.239Z,89.33
2018-10-17T22:30:20.593Z,89.31
2018-10-17T22:32:48.926Z,89.11
2018-10-17T22:35:17.324Z,88.46
2018-10-17T22:37:45.746Z,88.56
2018-10-17T22:40:14.121Z,88.55
2018-10-17T22:42:42.484Z,88.18
2018-10-17T22:45:10.812Z,88.05
2018-10-17T22:47:39.160Z,88.22
2018-10-17T22:50:08.075Z,88.35
2018-10-17T22:52:36.521Z,89.31
2018-10-17T22:55:04.893Z,91.25
2018-10-17T22:57:33.258Z,92.30
2018-10-17T23:00:01.589Z,90.85
2018-10-17T23:02:30.010Z,89.90
2018-10-17T23:04:58.524Z,89.67
2018-10-17T23:07:26.859Z,89.81
2018-10-17T23:09:55.235Z,89.56
2018-10-17T23:12:23.561Z,89.84
2018-10-17T23:14:51.967Z,89.64
2018-10-17T23:17:20.312Z,89.25
2018-10-17T23:19:48.619Z,89.54
2018-10-17T23:22:16.954Z,89.53
2018-10-17T23:24:45.280Z,89.35
2018-10-17T23:27:13.608Z,89.12
2018-10-17T23:29:41.917Z,89.19
2018-10-17T23:32:10.380Z,88.86
2018-10-17T23:34:38.695Z,89.44
2018-10-17T23:37:07.096Z,89.19
2018-10-17T23:39:35.531Z,89.41
2018-10-17T23:42:03.869Z,89.20
2018-10-17T23:44:32.184Z,89.12
2018-10-17T23:47:00.640Z,88.93
2018-10-17T23:49:29.003Z,89.16
2018-10-17T23:51:57.401Z,89.61
2018-10-17T23:54:25.790Z,89.58
2018-10-17T23:56:54.194Z,89.19
2018-10-17T23:59:22.492Z,89.83
